createdAt,value
2023-02-11T00:00:36.183Z,68.95
2023-02-11T00:03:05.419Z,70.70
2023-02-11T00:05:33.292Z,68.80
2023-02-11T00:08:01.163Z,72.53
2023-02-11T00:10:29.043Z,74.93
2023-02-11T00:12:57.067Z,92.43
2023-02-11T00:15:25.015Z,83.43
2023-02-11T00:17:52.870Z,82.45
2023-02-11T00:20:22.185Z,88.75
2023-02-11T16:21:31.570Z,34.22
2023-02-11T16:24:00.006Z,35.97
2023-02-11T16:26:32.714Z,35.97
2023-02-11T16:29:06.315Z,32.17
2023-02-11T16:31:36.047Z,38.10
2023-02-11T16:34:03.959Z,32.67
2023-02-11T16:36:33.227Z,31.25
2023-02-11T16:39:01.098Z,31.33
2023-02-11T16:41:28.997Z,33.45
2023-02-11T16:43:58.876Z,34.08
2023-02-11T16:46:27.454Z,32.72
2023-02-11T16:48:56.462Z,29.83
2023-02-11T16:51:24.418Z,29.55
2023-02-11T16:53:53.672Z,31.77
2023-02-11T16:56:21.626Z,41.20
2023-02-11T16:58:49.513Z,52.80
2023-02-11T17:01:17.521Z,50.78
2023-02-11T17:03:45.585Z,57.03
2023-02-11T17:06:14.729Z,42.03
2023-02-11T17:08:43.026Z,42.95
2023-02-11T17:11:16.635Z,45.22
2023-02-11T17:13:44.720Z,48.25
2023-02-11T17:16:18.126Z,51.88
2023-02-11T17:18:46.499Z,59.30
2023-02-11T17:21:14.630Z,67.25
2023-02-11T17:23:42.702Z,55.35
2023-02-11T17:26:12.099Z,65.07
2023-02-11T17:28:40.084Z,65.07
2023-02-11T17:31:09.558Z,68.93
2023-02-11T17:33:38.844Z,69.03
2023-02-11T17:36:10.667Z,72.78
2023-02-11T17:38:39.172Z,73.35
2023-02-11T17:41:07.338Z,70.85
2023-02-11T17:43:36.592Z,68.57
2023-02-11T17:46:08.232Z,69.65
2023-02-11T17:48:37.660Z,69.63
2023-02-11T17:51:05.993Z,80.10
2023-02-11T17:53:33.823Z,73.03
2023-02-11T17:56:06.252Z,78.85
2023-02-11T17:58:34.194Z,81.30
2023-02-11T18:01:03.443Z,82.80
2023-02-11T18:03:31.391Z,80.35
2023-02-11T18:06:01.407Z,84.00
2023-02-11T18:08:29.314Z,74.82
2023-02-11T18:10:57.211Z,84.18
2023-02-11T18:13:25.126Z,75.00
2023-02-11T18:15:53.339Z,73.75
2023-02-11T18:18:22.753Z,65.78
2023-02-11T18:20:57.675Z,69.20
2023-02-11T18:25:53.632Z,73.60
2023-02-11T18:28:21.693Z,68.82
2023-02-11T18:30:49.623Z,73.38
2023-02-11T18:33:17.501Z,72.45
2023-02-11T18:35:49.019Z,76.85
2023-02-11T18:38:18.542Z,68.90
2023-02-11T18:40:47.436Z,72.63
2023-02-11T18:43:15.418Z,70.10
2023-02-11T18:45:44.537Z,72.57
2023-02-11T18:48:12.761Z,71.97
2023-02-11T18:50:41.533Z,78.20
2023-02-11T18:53:11.466Z,76.97
2023-02-11T18:55:39.934Z,77.20
2023-02-11T18:58:08.014Z,74.97
2023-02-11T19:00:36.434Z,79.88
2023-02-11T19:03:04.390Z,93.57
2023-02-11T19:05:33.409Z,91.28
2023-02-11T19:08:02.067Z,86.60
2023-02-11T19:10:31.306Z,88.85
2023-02-11T19:12:59.619Z,93.78
2023-02-11T19:15:28.012Z,97.53
2023-02-11T19:17:56.012Z,89.68
2023-02-11T19:20:23.877Z,97.32
2023-02-11T19:22:51.975Z,106.18
2023-02-11T19:25:19.901Z,95.75
2023-02-11T19:27:49.123Z,99.70
2023-02-11T19:30:17.102Z,94.80
2023-02-11T19:32:44.961Z,94.65
2023-02-11T19:35:12.896Z,93.70
2023-02-11T19:37:41.293Z,92.50
2023-02-11T19:40:10.195Z,98.50
2023-02-11T19:42:38.047Z,82.93
2023-02-11T19:45:08.069Z,90.68
2023-02-11T19:47:36.303Z,94.75
2023-02-11T19:50:05.365Z,97.68
2023-02-11T19:52:33.624Z,95.20
2023-02-11T19:55:01.610Z,101.80
2023-02-11T19:57:29.434Z,98.65
2023-02-11T19:59:57.309Z,95.40
2023-02-11T20:02:26.701Z,93.97
2023-02-11T20:04:54.699Z,93.35
2023-02-11T20:07:22.559Z,94.03
2023-02-11T20:09:50.430Z,93.10
2023-02-11T20:12:18.329Z,93.22
2023-02-11T20:14:46.290Z,95.15
2023-02-11T20:17:14.189Z,93.90
2023-02-11T20:19:43.394Z,90.72
2023-02-11T20:22:12.853Z,93.70
2023-02-11T20:24:40.989Z,96.43
2023-02-11T20:27:11.351Z,94.90
2023-02-11T20:29:39.426Z,97.60
2023-02-11T20:32:08.396Z,89.20
2023-02-11T20:34:36.375Z,91.47
2023-02-11T20:37:06.610Z,98.85
2023-02-11T20:39:35.392Z,100.55
2023-02-11T20:42:03.262Z,104.22
2023-02-11T20:44:31.121Z,104.30
2023-02-11T20:46:58.989Z,97.15
2023-02-11T20:49:28.278Z,97.88
2023-02-11T20:51:58.246Z,104.72
2023-02-11T20:54:27.973Z,101.88
2023-02-11T20:56:56.912Z,108.65
2023-02-11T20:59:25.621Z,106.20
2023-02-11T21:01:56.341Z,113.97
2023-02-11T21:04:26.692Z,114.65
2023-02-11T21:06:56.317Z,115.07
2023-02-11T21:09:26.020Z,115.88
2023-02-11T21:11:55.951Z,113.70
2023-02-11T21:14:25.266Z,111.18
2023-02-11T21:16:53.504Z,116.03
2023-02-11T21:19:21.539Z,112.40
2023-02-11T21:21:49.509Z,117.03
2023-02-11T21:24:17.403Z,112.85
2023-02-11T21:26:45.311Z,110.88
2023-02-11T21:29:14.615Z,116.07
2023-02-11T21:31:42.850Z,108.68
2023-02-11T21:34:11.690Z,119.85
2023-02-11T21:36:39.817Z,109.50
2023-02-11T21:39:08.788Z,114.65
2023-02-11T21:41:36.646Z,114.88
2023-02-11T21:44:04.480Z,114.05
2023-02-11T21:46:33.801Z,112.70
2023-02-11T21:49:01.712Z,119.72
2023-02-11T21:51:29.642Z,115.10
2023-02-11T21:53:59.212Z,110.13
2023-02-11T21:56:27.983Z,114.65
2023-02-11T21:58:58.148Z,115.38
2023-02-11T22:01:27.857Z,117.95
2023-02-11T22:03:57.259Z,123.03
2023-02-11T22:06:27.155Z,121.90
2023-02-11T22:08:56.102Z,114.20
2023-02-11T22:11:24.777Z,113.53
2023-02-11T22:13:56.152Z,122.25
2023-02-11T22:16:24.587Z,116.82
2023-02-11T22:18:52.503Z,113.55
2023-02-11T22:21:23.275Z,121.45
2023-02-11T22:23:52.066Z,117.35
2023-02-11T22:26:22.213Z,116.78
2023-02-11T22:28:50.677Z,119.53
2023-02-11T22:31:21.065Z,122.15
2023-02-11T22:33:49.794Z,108.03
2023-02-11T22:36:19.655Z,103.07
2023-02-11T22:38:49.567Z,88.80
2023-02-11T22:41:18.597Z,83.00
2023-02-11T22:43:46.912Z,92.13
2023-02-11T22:46:17.133Z,80.18
2023-02-11T22:48:45.074Z,75.47
2023-02-11T22:51:14.515Z,67.60
2023-02-11T22:53:43.560Z,69.28
2023-02-11T22:56:15.856Z,67.15
2023-02-11T22:58:44.141Z,70.43
2023-02-11T23:01:12.605Z,62.95
2023-02-11T23:03:41.449Z,62.70
2023-02-11T23:06:09.884Z,62.72
2023-02-11T23:08:39.673Z,55.83
2023-02-11T23:11:09.733Z,52.97
2023-02-11T23:13:41.534Z,51.35
2023-02-11T23:16:11.697Z,52.58
2023-02-11T23:18:42.274Z,46.97
2023-02-11T23:21:12.939Z,47.95
2023-02-11T23:23:41.230Z,48.65
2023-02-11T23:26:11.383Z,48.10
2023-02-11T23:28:40.952Z,47.00
2023-02-11T23:31:17.052Z,42.95
2023-02-11T23:33:45.372Z,45.15
2023-02-11T23:36:14.098Z,42.33
2023-02-11T23:38:42.140Z,42.22
2023-02-11T23:41:10.080Z,43.63
2023-02-11T23:43:38.236Z,45.58
2023-02-11T23:46:08.296Z,44.72
2023-02-11T23:48:37.702Z,45.67
2023-02-11T23:51:06.419Z,44.38
2023-02-11T23:53:34.278Z,44.80
2023-02-11T23:56:02.145Z,44.85
2023-02-11T23:58:30.360Z,41.08
